Time;durP1;ratioP1;P1;durP2;ratioP2;P2;SDS_P1;SDS_P2;PMS_P1;PMS_P2;Temp;Humidity;BMP_temperature;BMP_pressure;BME280_temperature;BME280_humidity;BME280_pressure;Samples;Min_cycle;Max_cycle;Signal;HPM_P1;HPM_P2
2021/12/03 00:01:57;;;;;;;5.63;1.80;;;;;;;;;;4996043;28;20109;-65
2021/12/03 00:04:22;;;;;;;5.88;1.80;;;;;;;;;;5008745;28;20025;-64
2021/12/03 00:06:48;;;;;;;6.88;2.20;;;;;;;;;;5002286;28;20017;-63
2021/12/03 00:09:13;;;;;;;7.07;2.20;;;;;;;;;;5015342;28;20026;-64
2021/12/03 00:11:39;;;;;;;7.78;2.10;;;;;;;;;;4997773;28;20033;-63
2021/12/03 00:14:04;;;;;;;5.20;2.15;;;;;;;;;;5009578;28;20042;-65
2021/12/03 00:16:30;;;;;;;5.22;2.00;;;;;;;;;;5006643;28;20033;-61
2021/12/03 00:18:56;;;;;;;6.10;1.92;;;;;;;;;;5012524;28;20092;-64
2021/12/03 00:21:24;;;;;;;4.78;1.77;;;;;;;;;;5013285;28;20084;-65
2021/12/03 00:23:49;;;;;;;4.90;1.83;;;;;;;;;;4993460;28;20457;-63
2021/12/03 00:26:15;;;;;;;3.40;2.10;;;;;;;;;;5013081;28;20096;-64
2021/12/03 00:28:42;;;;;;;5.70;1.90;;;;;;;;;;5010721;28;20036;-64
2021/12/03 00:31:08;;;;;;;5.00;2.38;;;;;;;;;;5011041;28;20044;-64
2021/12/03 00:33:36;;;;;;;3.40;1.52;;;;;;;;;;5005593;28;20025;-65
2021/12/03 00:36:05;;;;;;;6.32;1.95;;;;;;;;;;5011146;28;20108;-65
2021/12/03 00:38:36;;;;;;;8.30;2.00;;;;;;;;;;5014585;28;20139;-64
2021/12/03 00:41:05;;;;;;;4.95;2.17;;;;;;;;;;5014809;28;20041;-65
2021/12/03 00:43:30;;;;;;;3.80;1.92;;;;;;;;;;5007229;28;20404;-64
2021/12/03 00:46:04;;;;;;;4.20;2.28;;;;;;;;;;5004254;28;20026;-65
2021/12/03 00:48:29;;;;;;;5.05;2.00;;;;;;;;;;5013222;28;20049;-64
2021/12/03 00:50:55;;;;;;;5.07;2.30;;;;;;;;;;5013111;28;20400;-64
2021/12/03 00:53:21;;;;;;;10.57;1.90;;;;;;;;;;5013032;28;20037;-63
2021/12/03 00:55:46;;;;;;;4.30;1.80;;;;;;;;;;5013022;28;20049;-64
2021/12/03 00:58:12;;;;;;;3.97;1.48;;;;;;;;;;5010951;28;20030;-64
2021/12/03 01:00:37;;;;;;;8.35;1.90;;;;;;;;;;5013208;28;20034;-62
2021/12/03 01:03:03;;;;;;;6.30;1.95;;;;;;;;;;5012104;28;20026;-63
2021/12/03 01:05:29;;;;;;;8.45;2.00;;;;;;;;;;5012775;28;20026;-65
2021/12/03 01:07:55;;;;;;;3.22;1.55;;;;;;;;;;4976902;28;20033;-63
2021/12/03 01:10:22;;;;;;;2.28;1.60;;;;;;;;;;5009711;28;20041;-63
2021/12/03 01:12:48;;;;;;;5.72;1.60;;;;;;;;;;5013762;28;20020;-65
2021/12/03 01:15:17;;;;;;;9.40;1.92;;;;;;;;;;5010039;28;20017;-64
2021/12/03 01:17:44;;;;;;;7.85;3.00;;;;;;;;;;4996544;28;20072;-64
2021/12/03 01:20:11;;;;;;;3.22;1.42;;;;;;;;;;5013723;28;20092;-64
2021/12/03 01:22:37;;;;;;;2.60;1.30;;;;;;;;;;5008342;28;20375;-63
2021/12/03 01:25:05;;;;;;;4.70;1.92;;;;;;;;;;4994691;28;20026;-64
2021/12/03 01:27:31;;;;;;;4.13;1.58;;;;;;;;;;4978892;28;20034;-64
2021/12/03 01:29:56;;;;;;;4.85;1.90;;;;;;;;;;5009875;28;20037;-62
2021/12/03 01:32:22;;;;;;;3.42;1.75;;;;;;;;;;4999473;28;20483;-64
2021/12/03 01:34:48;;;;;;;6.20;1.67;;;;;;;;;;4999428;28;20027;-64
2021/12/03 01:37:13;;;;;;;8.02;3.75;;;;;;;;;;4995392;28;20109;-63
2021/12/03 01:39:39;;;;;;;4.30;1.65;;;;;;;;;;5013633;28;20084;-64
2021/12/03 01:42:04;;;;;;;3.10;1.70;;;;;;;;;;4997765;28;20018;-64
2021/12/03 01:44:30;;;;;;;4.57;1.95;;;;;;;;;;4995559;28;20436;-64
2021/12/03 01:46:55;;;;;;;3.47;1.45;;;;;;;;;;5010753;28;20026;-64
2021/12/03 01:49:23;;;;;;;4.70;1.70;;;;;;;;;;5004968;28;20136;-64
2021/12/03 01:51:49;;;;;;;5.60;1.73;;;;;;;;;;5010197;28;20367;-65
2021/12/03 01:54:15;;;;;;;8.27;1.40;;;;;;;;;;5002100;28;20018;-65
2021/12/03 01:56:41;;;;;;;2.70;1.25;;;;;;;;;;5007406;28;20029;-63
2021/12/03 01:59:07;;;;;;;4.68;1.58;;;;;;;;;;4999167;28;20081;-64
2021/12/03 02:01:33;;;;;;;5.80;1.55;;;;;;;;;;5010332;28;20033;-63
2021/12/03 02:04:00;;;;;;;3.33;1.40;;;;;;;;;;5013518;28;20104;-64
2021/12/03 02:06:27;;;;;;;5.72;1.80;;;;;;;;;;4996601;28;20053;-64
2021/12/03 02:08:54;;;;;;;4.25;1.73;;;;;;;;;;5007961;28;20025;-65
2021/12/03 02:11:20;;;;;;;4.22;1.85;;;;;;;;;;5013209;28;20370;-64
2021/12/03 02:13:48;;;;;;;3.05;1.40;;;;;;;;;;5013115;28;20029;-63
2021/12/03 02:16:15;;;;;;;3.17;1.75;;;;;;;;;;4999611;28;20038;-64
2021/12/03 02:18:41;;;;;;;4.03;1.77;;;;;;;;;;5011369;28;20524;-64
2021/12/03 02:21:08;;;;;;;5.53;1.63;;;;;;;;;;5013455;28;20381;-63
2021/12/03 02:23:35;;;;;;;3.05;1.35;;;;;;;;;;5007294;28;20030;-64
2021/12/03 02:26:01;;;;;;;9.80;1.70;;;;;;;;;;4993674;28;20053;-64
2021/12/03 02:28:30;;;;;;;5.55;1.85;;;;;;;;;;5012199;28;20026;-65
2021/12/03 02:30:56;;;;;;;5.82;1.52;;;;;;;;;;5000152;28;20061;-65
2021/12/03 02:33:22;;;;;;;6.97;1.77;;;;;;;;;;4997030;28;20025;-64
2021/12/03 02:35:48;;;;;;;4.63;1.45;;;;;;;;;;5006630;28;20419;-65
2021/12/03 02:38:17;;;;;;;6.05;1.58;;;;;;;;;;4999902;28;20045;-64
2021/12/03 02:40:43;;;;;;;4.40;1.50;;;;;;;;;;5012891;28;20477;-62
2021/12/03 02:43:09;;;;;;;7.85;1.98;;;;;;;;;;4998901;28;20030;-59
2021/12/03 02:45:34;;;;;;;5.22;1.58;;;;;;;;;;5010545;28;20072;-65
2021/12/03 02:48:01;;;;;;;5.22;1.38;;;;;;;;;;5012144;28;20041;-65
2021/12/03 02:50:27;;;;;;;2.30;1.30;;;;;;;;;;5004458;28;20034;-65
2021/12/03 02:52:53;;;;;;;4.57;1.30;;;;;;;;;;4993878;28;20041;-63
2021/12/03 02:55:19;;;;;;;2.35;1.08;;;;;;;;;;5001461;28;20026;-63
2021/12/03 02:57:45;;;;;;;4.70;1.65;;;;;;;;;;5003399;28;20492;-63
2021/12/03 03:00:15;;;;;;;3.53;1.40;;;;;;;;;;5004212;28;20058;-64
2021/12/03 03:02:41;;;;;;;3.63;1.67;;;;;;;;;;5004851;28;20062;-64
2021/12/03 03:05:09;;;;;;;2.47;1.15;;;;;;;;;;5012497;28;20097;-61
2021/12/03 03:07:35;;;;;;;4.13;1.90;;;;;;;;;;5010483;28;20481;-64
2021/12/03 03:10:03;;;;;;;3.45;1.63;;;;;;;;;;4993071;28;20026;-64
2021/12/03 03:12:28;;;;;;;8.00;1.67;;;;;;;;;;4992665;28;20417;-65
2021/12/03 03:14:57;;;;;;;5.57;1.83;;;;;;;;;;4993140;28;20030;-64
2021/12/03 03:17:24;;;;;;;5.97;2.00;;;;;;;;;;5009130;28;20057;-64
2021/12/03 03:19:50;;;;;;;2.88;1.55;;;;;;;;;;5012316;28;20021;-63
2021/12/03 03:22:17;;;;;;;3.30;1.60;;;;;;;;;;5008809;28;20014;-64
2021/12/03 03:24:43;;;;;;;4.50;2.25;;;;;;;;;;5002768;28;20138;-64
2021/12/03 03:27:09;;;;;;;5.10;1.50;;;;;;;;;;4994839;28;20101;-56
2021/12/03 03:29:35;;;;;;;5.60;1.83;;;;;;;;;;5012206;28;20030;-59
2021/12/03 03:32:02;;;;;;;3.55;1.50;;;;;;;;;;5012328;28;20485;-58
2021/12/03 03:34:28;;;;;;;8.52;2.10;;;;;;;;;;5006214;28;20473;-58
2021/12/03 03:36:54;;;;;;;4.97;2.25;;;;;;;;;;5015311;28;20107;-58
2021/12/03 03:39:20;;;;;;;2.40;1.52;;;;;;;;;;5003677;28;20519;-58
2021/12/03 03:41:46;;;;;;;6.32;2.10;;;;;;;;;;4994355;28;20030;-61
2021/12/03 03:44:15;;;;;;;8.40;2.47;;;;;;;;;;5012215;28;20019;-57
2021/12/03 03:46:42;;;;;;;5.07;2.78;;;;;;;;;;5008846;28;20424;-59
2021/12/03 03:49:08;;;;;;;4.20;1.88;;;;;;;;;;5004915;28;20038;-58
2021/12/03 03:51:34;;;;;;;4.63;2.40;;;;;;;;;;5001790;28;20034;-63
2021/12/03 03:54:00;;;;;;;5.60;2.17;;;;;;;;;;5005369;28;20042;-59
2021/12/03 03:56:26;;;;;;;6.18;2.13;;;;;;;;;;5006442;28;20022;-56
2021/12/03 03:58:52;;;;;;;5.22;2.28;;;;;;;;;;5007430;28;20034;-58
2021/12/03 04:01:17;;;;;;;5.53;2.30;;;;;;;;;;5008308;28;20676;-59
2021/12/03 04:03:46;;;;;;;5.43;2.28;;;;;;;;;;5006877;28;20021;-58
2021/12/03 04:06:14;;;;;;;11.27;2.70;;;;;;;;;;5013946;28;20017;-59
2021/12/03 04:08:39;;;;;;;4.00;2.28;;;;;;;;;;5007714;28;20022;-58
2021/12/03 04:11:05;;;;;;;5.75;2.70;;;;;;;;;;5012641;28;20080;-58
2021/12/03 04:13:30;;;;;;;7.28;2.78;;;;;;;;;;5012387;28;20414;-56
2021/12/03 04:15:56;;;;;;;7.65;2.70;;;;;;;;;;5002725;28;20022;-60
2021/12/03 04:18:21;;;;;;;5.93;2.45;;;;;;;;;;5012621;28;20036;-59
2021/12/03 04:20:47;;;;;;;4.03;1.75;;;;;;;;;;5014663;28;20030;-58
2021/12/03 04:23:17;;;;;;;8.02;2.97;;;;;;;;;;4999734;28;20030;-57
2021/12/03 04:25:43;;;;;;;2.67;1.63;;;;;;;;;;5002257;28;20018;-59
2021/12/03 04:28:09;;;;;;;6.43;2.53;;;;;;;;;;5012202;28;20040;-62
2021/12/03 04:30:35;;;;;;;5.50;2.50;;;;;;;;;;5004483;28;20072;-59
2021/12/03 04:33:02;;;;;;;4.65;2.33;;;;;;;;;;4999835;28;20041;-60
2021/12/03 04:35:29;;;;;;;14.73;2.63;;;;;;;;;;4996927;28;20058;-63
2021/12/03 04:37:55;;;;;;;5.93;2.45;;;;;;;;;;5005779;28;20024;-60
2021/12/03 04:40:22;;;;;;;5.80;2.50;;;;;;;;;;5014883;28;20105;-59
2021/12/03 04:42:48;;;;;;;5.78;2.72;;;;;;;;;;5012295;28;20022;-59
2021/12/03 04:45:18;;;;;;;10.45;3.80;;;;;;;;;;5020253;28;20029;-60
2021/12/03 04:47:44;;;;;;;;;;;;;;;;;;5012915;28;20026;-57
2021/12/03 04:50:12;;;;;;;9.30;3.03;;;;;;;;;;5004864;28;20318;-60
2021/12/03 04:52:38;;;;;;;7.28;2.97;;;;;;;;;;5012361;28;20026;-61
2021/12/03 04:55:05;;;;;;;5.80;3.20;;;;;;;;;;4992943;28;20476;-66
2021/12/03 04:57:31;;;;;;;4.82;3.30;;;;;;;;;;5014318;28;20164;-59
2021/12/03 04:59:57;;;;;;;5.93;3.10;;;;;;;;;;5006142;28;20109;-66
2021/12/03 05:02:24;;;;;;;6.13;3.30;;;;;;;;;;4995027;28;20026;-64
2021/12/03 05:04:52;;;;;;;13.45;3.28;;;;;;;;;;5008552;28;20469;-66
2021/12/03 05:09:52;;;;;;;10.02;4.18;;;;;;;;;;5014457;28;20033;-66
2021/12/03 05:12:17;;;;;;;8.68;3.90;;;;;;;;;;5013894;28;20105;-63
2021/12/03 05:14:43;;;;;;;11.75;4.05;;;;;;;;;;5013716;28;20061;-64
2021/12/03 05:17:08;;;;;;;9.02;4.15;;;;;;;;;;5013743;28;20117;-66
2021/12/03 05:19:34;;;;;;;7.40;3.30;;;;;;;;;;5013807;28;20034;-63
2021/12/03 05:21:59;;;;;;;5.57;3.35;;;;;;;;;;5013303;28;20084;-66
2021/12/03 05:24:25;;;;;;;5.88;3.42;;;;;;;;;;5013484;28;20030;-66
2021/12/03 05:26:51;;;;;;;7.88;4.15;;;;;;;;;;5009611;28;20030;-65
2021/12/03 05:29:17;;;;;;;7.88;3.13;;;;;;;;;;4996075;28;20457;-64
2021/12/03 05:31:44;;;;;;;7.32;3.80;;;;;;;;;;5013687;28;20116;-65
2021/12/03 05:34:12;;;;;;;8.70;4.13;;;;;;;;;;4994632;28;20037;-66
2021/12/03 05:36:39;;;;;;;6.53;3.92;;;;;;;;;;5007351;28;20033;-66
2021/12/03 05:39:05;;;;;;;7.15;2.88;;;;;;;;;;5005129;28;20117;-64
2021/12/03 05:41:33;;;;;;;7.15;3.83;;;;;;;;;;5013775;28;20026;-65
2021/12/03 05:43:58;;;;;;;6.90;3.88;;;;;;;;;;5001504;28;20029;-67
2021/12/03 05:46:24;;;;;;;11.68;3.90;;;;;;;;;;5011230;28;20402;-66
2021/12/03 05:48:49;;;;;;;5.95;3.45;;;;;;;;;;5006811;28;20547;-67
2021/12/03 05:51:15;;;;;;;5.15;2.95;;;;;;;;;;4999601;28;20065;-66
2021/12/03 05:53:40;;;;;;;9.50;4.25;;;;;;;;;;5012481;28;20037;-65
2021/12/03 05:56:06;;;;;;;5.80;3.38;;;;;;;;;;5011911;28;20022;-66
2021/12/03 05:58:31;;;;;;;8.00;3.92;;;;;;;;;;5007675;28;20060;-66
2021/12/03 06:00:57;;;;;;;10.07;4.30;;;;;;;;;;5006108;28;20033;-67
2021/12/03 06:03:22;;;;;;;8.02;3.80;;;;;;;;;;4999686;28;20041;-64
2021/12/03 06:05:48;;;;;;;10.07;5.88;;;;;;;;;;5013532;28;20026;-63
2021/12/03 06:08:14;;;;;;;9.88;4.32;;;;;;;;;;5004227;28;20031;-63
2021/12/03 06:10:39;;;;;;;7.45;4.43;;;;;;;;;;5012835;28;20045;-65
2021/12/03 06:13:05;;;;;;;5.18;3.75;;;;;;;;;;4994995;28;20026;-60
2021/12/03 06:15:31;;;;;;;9.50;4.43;;;;;;;;;;5021449;28;20026;-63
2021/12/03 06:17:57;;;;;;;9.20;4.30;;;;;;;;;;5009291;28;20026;-67
2021/12/03 06:20:24;;;;;;;13.95;4.57;;;;;;;;;;5001746;28;20097;-63
2021/12/03 06:22:49;;;;;;;8.30;4.35;;;;;;;;;;4993290;28;20022;-60
2021/12/03 06:25:16;;;;;;;14.70;4.57;;;;;;;;;;5004552;28;20045;-64
2021/12/03 06:27:42;;;;;;;7.70;4.40;;;;;;;;;;4999635;28;20022;-61
2021/12/03 06:30:15;;;;;;;11.30;4.63;;;;;;;;;;5010856;28;20529;-66
2021/12/03 06:32:41;;;;;;;7.50;4.53;;;;;;;;;;5012838;28;20083;-60
2021/12/03 06:35:08;;;;;;;10.43;4.45;;;;;;;;;;5012692;28;20025;-64
2021/12/03 06:37:35;;;;;;;7.90;4.30;;;;;;;;;;5012611;28;20029;-66
2021/12/03 06:40:00;;;;;;;7.13;4.18;;;;;;;;;;5012845;28;20030;-65
2021/12/03 06:42:27;;;;;;;10.80;5.25;;;;;;;;;;5010764;28;20068;-67
2021/12/03 06:44:53;;;;;;;10.65;4.88;;;;;;;;;;5008531;28;20068;-67
2021/12/03 06:47:18;;;;;;;12.07;4.40;;;;;;;;;;5011424;28;20053;-66
2021/12/03 06:49:44;;;;;;;10.70;4.75;;;;;;;;;;5008681;28;20046;-66
2021/12/03 06:52:14;;;;;;;8.68;4.40;;;;;;;;;;5011778;28;20580;-64
2021/12/03 06:54:41;;;;;;;13.52;4.40;;;;;;;;;;5004331;28;20019;-67
2021/12/03 06:57:07;;;;;;;6.40;3.58;;;;;;;;;;4999519;28;20485;-66
2021/12/03 06:59:34;;;;;;;12.55;5.18;;;;;;;;;;5010622;28;20030;-67
2021/12/03 07:02:00;;;;;;;11.05;4.82;;;;;;;;;;5007757;28;20021;-63
2021/12/03 07:04:25;;;;;;;10.50;5.38;;;;;;;;;;5003640;28;20033;-64
2021/12/03 07:06:51;;;;;;;10.27;4.70;;;;;;;;;;5004121;28;20030;-67
2021/12/03 07:09:17;;;;;;;10.50;5.05;;;;;;;;;;4994130;28;20041;-67
2021/12/03 07:11:43;;;;;;;13.85;5.28;;;;;;;;;;5021846;28;20408;-67
2021/12/03 07:14:09;;;;;;;12.93;5.65;;;;;;;;;;5001620;28;20030;-63
2021/12/03 07:16:35;;;;;;;12.77;5.28;;;;;;;;;;5009445;28;20483;-65
2021/12/03 07:19:01;;;;;;;8.95;4.65;;;;;;;;;;5002033;28;20557;-67
2021/12/03 07:21:27;;;;;;;10.98;5.25;;;;;;;;;;5012446;28;20117;-66
2021/12/03 07:23:53;;;;;;;12.18;6.07;;;;;;;;;;5004011;28;20093;-64
2021/12/03 07:26:20;;;;;;;10.35;5.03;;;;;;;;;;5006846;28;20146;-63
2021/12/03 07:28:46;;;;;;;9.95;5.30;;;;;;;;;;4994289;28;20023;-67
2021/12/03 07:31:12;;;;;;;8.80;4.90;;;;;;;;;;5011855;28;20030;-65
2021/12/03 07:33:39;;;;;;;11.70;5.15;;;;;;;;;;5013207;28;20045;-67
2021/12/03 07:36:05;;;;;;;12.00;4.07;;;;;;;;;;5015112;28;20022;-64
2021/12/03 07:38:32;;;;;;;10.43;5.07;;;;;;;;;;5000194;28;20461;-64
2021/12/03 07:40:58;;;;;;;11.95;5.30;;;;;;;;;;5011415;28;20376;-63
2021/12/03 07:43:24;;;;;;;10.52;5.43;;;;;;;;;;5008640;28;20037;-67
2021/12/03 07:45:49;;;;;;;13.20;5.53;;;;;;;;;;5004449;28;20061;-66
2021/12/03 07:48:16;;;;;;;14.10;6.18;;;;;;;;;;5011439;28;20121;-65
2021/12/03 07:50:42;;;;;;;8.40;5.07;;;;;;;;;;5006786;28;20095;-67
2021/12/03 07:53:13;;;;;;;15.60;3.15;;;;;;;;;;4996256;28;20029;-65
2021/12/03 07:55:38;;;;;;;12.00;5.22;;;;;;;;;;5010969;28;20519;-65
2021/12/03 07:58:04;;;;;;;12.18;4.82;;;;;;;;;;5002348;28;20061;-65
2021/12/03 08:00:30;;;;;;;10.65;5.10;;;;;;;;;;5004570;28;20404;-63
2021/12/03 08:02:56;;;;;;;9.90;5.03;;;;;;;;;;5011391;28;20026;-64
2021/12/03 08:05:21;;;;;;;14.77;5.85;;;;;;;;;;5013279;28;20388;-65
2021/12/03 08:07:49;;;;;;;10.73;5.55;;;;;;;;;;5013437;28;20026;-64
2021/12/03 08:10:15;;;;;;;10.48;5.07;;;;;;;;;;5008785;28;20037;-65
2021/12/03 08:12:42;;;;;;;11.35;4.95;;;;;;;;;;5008094;28;20034;-65
2021/12/03 08:15:08;;;;;;;10.55;4.82;;;;;;;;;;5002055;28;20492;-65
2021/12/03 08:17:34;;;;;;;9.63;5.35;;;;;;;;;;4997584;28;20121;-65
2021/12/03 08:20:01;;;;;;;9.00;5.32;;;;;;;;;;4995777;28;20030;-64
2021/12/03 08:22:26;;;;;;;9.48;5.07;;;;;;;;;;5003815;28;20474;-64
2021/12/03 08:24:52;;;;;;;11.32;4.97;;;;;;;;;;4995312;28;20089;-63
2021/12/03 08:27:17;;;;;;;7.28;4.47;;;;;;;;;;4998505;28;20227;-64
2021/12/03 08:29:43;;;;;;;11.40;5.20;;;;;;;;;;4995356;28;20030;-65
2021/12/03 08:32:10;;;;;;;13.43;5.53;;;;;;;;;;5011234;28;20065;-64
2021/12/03 08:34:36;;;;;;;10.30;5.28;;;;;;;;;;5009964;28;20061;-64
2021/12/03 08:37:03;;;;;;;11.52;5.07;;;;;;;;;;5013601;28;20499;-65
2021/12/03 08:39:31;;;;;;;16.20;5.32;;;;;;;;;;5013989;28;20056;-65
2021/12/03 08:41:57;;;;;;;9.23;4.63;;;;;;;;;;5014422;28;20420;-66
2021/12/03 08:44:23;;;;;;;6.75;3.92;;;;;;;;;;5014876;28;20060;-65
2021/12/03 08:46:57;;;;;;;8.02;4.97;;;;;;;;;;5018737;28;20030;-65
2021/12/03 08:50:06;;;;;;;9.05;5.40;;;;;;;;;;5012606;28;20389;-65
2021/12/03 08:54:52;;;;;;;9.80;4.95;;;;;;;;;;5017564;28;20508;-66
2021/12/03 08:57:24;;;;;;;11.27;5.10;;;;;;;;;;5013426;28;20030;-62
2021/12/03 09:00:03;;;;;;;11.23;5.45;;;;;;;;;;5011107;28;20037;-66
2021/12/03 09:02:28;;;;;;;6.25;3.33;;;;;;;;;;5012345;28;20132;-65
2021/12/03 09:04:54;;;;;;;10.25;5.13;;;;;;;;;;5013991;28;20464;-66
2021/12/03 09:07:20;;;;;;;10.27;5.07;;;;;;;;;;5016166;28;20034;-65
2021/12/03 09:09:46;;;;;;;9.77;5.32;;;;;;;;;;5007039;28;20034;-63
2021/12/03 09:12:11;;;;;;;12.93;5.70;;;;;;;;;;5013364;28;20141;-66
2021/12/03 09:25:03;;;;;;;10.23;5.70;;;;;;;;;;5003404;28;20034;-65
2021/12/03 09:27:28;;;;;;;12.85;5.95;;;;;;;;;;5008547;28;20081;-66
2021/12/03 09:29:55;;;;;;;16.02;6.93;;;;;;;;;;4994659;28;20030;-65
2021/12/03 09:32:30;;;;;;;8.13;4.65;;;;;;;;;;5001041;28;20021;-66
2021/12/03 09:34:56;;;;;;;12.73;5.75;;;;;;;;;;5001462;28;20030;-65
2021/12/03 09:37:22;;;;;;;14.18;5.75;;;;;;;;;;4998468;28;20385;-65
2021/12/03 09:39:48;;;;;;;10.27;5.53;;;;;;;;;;5001904;28;20092;-65
2021/12/03 09:42:20;;;;;;;9.38;5.57;;;;;;;;;;4999211;28;20030;-66
2021/12/03 09:44:47;;;;;;;13.55;5.95;;;;;;;;;;5013381;28;20041;-66
2021/12/03 09:47:18;;;;;;;10.80;5.45;;;;;;;;;;4995091;28;20023;-65
2021/12/03 09:49:44;;;;;;;11.43;6.15;;;;;;;;;;4976293;28;20066;-66
2021/12/03 09:54:50;;;;;;;7.57;3.90;;;;;;;;;;5011407;28;20378;-62
2021/12/03 09:57:37;;;;;;;9.48;5.43;;;;;;;;;;5013624;28;20025;-65
2021/12/03 10:00:54;;;;;;;9.05;5.15;;;;;;;;;;5013360;28;20029;-66
2021/12/03 10:14:57;;;;;;;8.27;4.13;;;;;;;;;;4933402;29;20032;-66
2021/12/03 10:31:09;;;;;;;11.48;5.38;;;;;;;;;;4932997;29;20040;-65
2021/12/03 10:39:07;;;;;;;10.07;5.70;;;;;;;;;;4933213;29;20032;-66
2021/12/03 10:44:15;;;;;;;11.57;5.38;;;;;;;;;;4949325;28;20031;-66
2021/12/03 11:44:57;;;;;;;10.68;4.43;;;;;;;;;;4912663;29;20525;-66
2021/12/03 13:01:07;;;;;;;12.98;6.18;;;;;;;;;;4916251;29;20088;-66
2021/12/03 13:03:32;;;;;;;16.55;6.75;;;;;;;;;;4907820;29;20529;-66
2021/12/03 13:13:50;;;;;;;12.18;6.70;;;;;;;;;;4914460;29;20051;-64
2021/12/03 13:19:36;;;;;;;13.00;6.38;;;;;;;;;;4942225;28;20051;-64
2021/12/03 14:50:04;;;;;;;10.02;5.07;;;;;;;;;;4934790;29;20070;-64
2021/12/03 14:55:02;;;;;;;13.73;5.18;;;;;;;;;;4933147;29;20043;-65
2021/12/03 15:00:27;;;;;;;8.85;4.85;;;;;;;;;;4944562;29;20027;-65
2021/12/03 15:08:46;;;;;;;11.35;5.63;;;;;;;;;;4940443;29;20032;-65
2021/12/03 15:24:55;;;;;;;11.40;5.38;;;;;;;;;;5007345;28;20068;-64
2021/12/03 16:04:43;;;;;;;10.43;4.88;;;;;;;;;;5015475;28;20155;-66
2021/12/03 16:07:25;;;;;;;9.27;3.65;;;;;;;;;;5015425;28;20524;-64
2021/12/03 16:15:36;;;;;;;8.85;4.22;;;;;;;;;;5014839;28;20040;-63
2021/12/03 16:44:57;;;;;;;10.05;4.68;;;;;;;;;;5009238;28;20538;-65
2021/12/03 16:52:33;;;;;;;10.48;5.47;;;;;;;;;;5014041;28;20040;-64
2021/12/03 16:55:01;;;;;;;9.57;4.63;;;;;;;;;;5011217;28;20057;-63
2021/12/03 16:57:32;;;;;;;13.27;5.28;;;;;;;;;;5013690;28;20057;-62
2021/12/03 17:00:01;;;;;;;13.75;4.90;;;;;;;;;;5010000;28;20136;-61
2021/12/03 17:03:15;;;;;;;10.73;4.88;;;;;;;;;;5009210;28;20408;-62
2021/12/03 17:08:25;;;;;;;10.60;4.78;;;;;;;;;;5013774;28;20124;-63
2021/12/03 17:15:50;;;;;;;11.40;4.93;;;;;;;;;;5011573;28;20057;-65
2021/12/03 18:03:12;;;;;;;10.07;5.28;;;;;;;;;;5004528;28;20023;-64
2021/12/03 18:08:30;;;;;;;12.35;5.25;;;;;;;;;;5012769;28;20104;-64
2021/12/03 18:11:26;;;;;;;15.77;6.28;;;;;;;;;;5007244;28;20485;-64
2021/12/03 18:14:11;;;;;;;10.77;5.18;;;;;;;;;;5008322;28;20038;-63
2021/12/03 18:56:07;;;;;;;16.95;6.43;;;;;;;;;;5012433;28;20049;-64
2021/12/03 18:58:32;;;;;;;12.73;6.57;;;;;;;;;;5012788;28;20037;-63
2021/12/03 19:00:59;;;;;;;13.10;6.90;;;;;;;;;;4999274;28;20022;-64
2021/12/03 19:11:16;;;;;;;13.85;6.93;;;;;;;;;;4926322;29;20098;-62
2021/12/03 19:13:42;;;;;;;10.75;5.95;;;;;;;;;;4931346;29;20044;-64
2021/12/03 19:16:10;;;;;;;13.68;6.93;;;;;;;;;;4950781;28;20146;-64
2021/12/03 19:18:37;;;;;;;13.32;6.57;;;;;;;;;;4952081;29;20035;-63
2021/12/03 19:21:08;;;;;;;12.68;6.47;;;;;;;;;;4952256;29;20147;-64
2021/12/03 19:23:34;;;;;;;11.13;5.80;;;;;;;;;;4952060;28;20494;-64
2021/12/03 19:25:59;;;;;;;14.40;5.88;;;;;;;;;;4939267;29;20035;-63
2021/12/03 19:28:25;;;;;;;13.90;7.03;;;;;;;;;;4955787;29;20141;-65
2021/12/03 19:30:55;;;;;;;13.23;6.80;;;;;;;;;;4947751;29;20054;-58
2021/12/03 19:33:20;;;;;;;15.82;7.28;;;;;;;;;;4952948;28;20032;-64
2021/12/03 19:35:46;;;;;;;19.83;7.57;;;;;;;;;;4955525;28;20051;-65
2021/12/03 19:38:14;;;;;;;16.52;7.95;;;;;;;;;;4938773;29;20039;-60
2021/12/03 19:40:46;;;;;;;12.05;6.50;;;;;;;;;;4939780;29;20035;-63
2021/12/03 19:43:14;;;;;;;13.88;6.22;;;;;;;;;;4955780;29;20486;-62
2021/12/03 19:45:49;;;;;;;14.80;6.80;;;;;;;;;;4955879;29;20517;-63
2021/12/03 19:48:15;;;;;;;11.75;5.75;;;;;;;;;;4983671;28;20034;-64
2021/12/03 19:50:43;;;;;;;18.83;6.50;;;;;;;;;;5016015;28;20049;-63
2021/12/03 19:53:13;;;;;;;15.10;5.07;;;;;;;;;;5002607;28;20037;-61
2021/12/03 19:55:40;;;;;;;12.93;6.65;;;;;;;;;;5016153;28;20026;-64
2021/12/03 19:58:07;;;;;;;10.13;5.30;;;;;;;;;;5015907;28;20080;-63
2021/12/03 20:00:34;;;;;;;10.38;5.47;;;;;;;;;;5015887;28;20026;-64
2021/12/03 20:03:00;;;;;;;11.98;5.03;;;;;;;;;;5015757;28;20484;-62
2021/12/03 20:05:26;;;;;;;10.02;5.35;;;;;;;;;;5002998;28;20058;-64
2021/12/03 20:07:53;;;;;;;12.02;5.25;;;;;;;;;;4995854;28;20033;-64
2021/12/03 20:10:22;;;;;;;13.98;4.68;;;;;;;;;;4996100;28;20034;-61
2021/12/03 20:12:49;;;;;;;13.18;4.68;;;;;;;;;;5003257;28;20080;-62
2021/12/03 20:15:29;;;;;;;10.55;4.85;;;;;;;;;;5006045;28;20087;-66
2021/12/03 20:18:06;;;;;;;8.23;4.60;;;;;;;;;;5005202;28;20021;-65
2021/12/03 20:20:32;;;;;;;9.25;4.90;;;;;;;;;;4998943;28;20026;-62
2021/12/03 20:23:45;;;;;;;7.85;4.57;;;;;;;;;;4995574;28;20028;-62
2021/12/03 20:28:50;;;;;;;9.90;4.25;;;;;;;;;;5015381;28;20037;-63
2021/12/03 20:31:18;;;;;;;10.63;4.32;;;;;;;;;;5015362;28;20499;-59
2021/12/03 20:38:51;;;;;;;9.05;4.93;;;;;;;;;;5014650;28;20030;-66
2021/12/03 20:41:27;;;;;;;8.07;4.55;;;;;;;;;;5015279;28;20104;-61
2021/12/03 20:51:21;;;;;;;12.32;5.25;;;;;;;;;;5014359;28;20052;-64
2021/12/03 20:54:20;;;;;;;8.55;4.55;;;;;;;;;;5015227;28;20026;-62
2021/12/03 21:10:49;;;;;;;10.57;5.57;;;;;;;;;;4967312;28;20031;-64
2021/12/03 21:13:24;;;;;;;8.40;4.38;;;;;;;;;;4973375;28;20482;-64
2021/12/03 21:21:09;;;;;;;11.10;5.18;;;;;;;;;;4973038;28;20167;-64
2021/12/03 21:23:40;;;;;;;10.88;6.60;;;;;;;;;;4973022;28;20477;-65
2021/12/03 21:26:09;;;;;;;13.15;6.47;;;;;;;;;;4956982;28;20039;-65
2021/12/03 21:31:30;;;;;;;19.52;5.90;;;;;;;;;;4973091;28;20041;-62
2021/12/03 21:39:36;;;;;;;16.48;7.30;;;;;;;;;;4962501;28;20042;-65
2021/12/03 21:42:02;;;;;;;15.52;6.72;;;;;;;;;;4968834;28;20078;-65
2021/12/03 21:44:28;;;;;;;9.05;5.00;;;;;;;;;;4973073;28;20117;-65
2021/12/03 21:46:53;;;;;;;11.15;6.68;;;;;;;;;;5007457;28;20145;-65
2021/12/03 21:49:19;;;;;;;11.20;6.30;;;;;;;;;;5012327;28;20485;-62
2021/12/03 21:51:45;;;;;;;14.40;7.18;;;;;;;;;;5013903;28;20500;-64
2021/12/03 21:54:13;;;;;;;10.70;6.88;;;;;;;;;;5013882;28;20108;-65
2021/12/03 21:56:41;;;;;;;13.65;6.95;;;;;;;;;;5009413;28;20500;-63
2021/12/03 21:59:07;;;;;;;13.15;6.97;;;;;;;;;;4994284;28;20066;-65
2021/12/03 22:01:33;;;;;;;11.18;6.50;;;;;;;;;;4994074;28;20030;-59
2021/12/03 22:04:00;;;;;;;14.50;7.63;;;;;;;;;;4993867;28;20116;-63
2021/12/03 22:06:28;;;;;;;12.77;7.05;;;;;;;;;;4994012;28;20062;-66
2021/12/03 22:08:55;;;;;;;13.65;7.60;;;;;;;;;;4994039;28;20041;-65
2021/12/03 22:11:21;;;;;;;13.15;7.00;;;;;;;;;;4993930;28;20030;-65
2021/12/03 22:13:47;;;;;;;16.38;7.80;;;;;;;;;;4993908;28;20092;-65
2021/12/03 22:16:13;;;;;;;13.02;7.63;;;;;;;;;;4993865;28;20056;-65
2021/12/03 22:18:38;;;;;;;14.80;7.45;;;;;;;;;;5004968;28;20038;-64
2021/12/03 22:21:06;;;;;;;11.48;7.07;;;;;;;;;;5013324;28;20508;-65
2021/12/03 22:23:33;;;;;;;11.75;7.40;;;;;;;;;;5013638;28;20399;-66
2021/12/03 22:26:00;;;;;;;9.25;5.95;;;;;;;;;;5009457;28;20448;-63
2021/12/03 22:28:26;;;;;;;10.48;6.30;;;;;;;;;;5004215;28;20025;-65
2021/12/03 22:30:53;;;;;;;13.27;8.30;;;;;;;;;;5013110;28;20092;-66
2021/12/03 22:33:21;;;;;;;14.20;7.07;;;;;;;;;;5003273;28;20022;-64
2021/12/03 22:35:46;;;;;;;20.70;8.35;;;;;;;;;;4993692;28;20022;-66
2021/12/03 22:38:12;;;;;;;11.02;6.10;;;;;;;;;;5013271;28;20034;-65
2021/12/03 22:40:40;;;;;;;14.75;7.10;;;;;;;;;;5013114;28;20111;-65
2021/12/03 22:43:10;;;;;;;13.88;7.47;;;;;;;;;;5012898;28;20026;-66
2021/12/03 22:46:00;;;;;;;15.95;7.80;;;;;;;;;;5010231;28;20433;-66
2021/12/03 22:53:36;;;;;;;11.27;7.03;;;;;;;;;;4993315;28;20109;-67
2021/12/03 22:56:02;;;;;;;11.35;6.70;;;;;;;;;;4993358;28;20026;-66
2021/12/03 22:58:27;;;;;;;15.45;8.13;;;;;;;;;;5007880;28;20112;-66
2021/12/03 23:01:04;;;;;;;12.88;7.63;;;;;;;;;;5004511;28;20474;-66
2021/12/03 23:03:33;;;;;;;14.70;6.45;;;;;;;;;;5008513;28;20149;-66
2021/12/03 23:05:59;;;;;;;10.93;6.88;;;;;;;;;;5012741;28;20026;-63
2021/12/03 23:08:25;;;;;;;13.43;7.32;;;;;;;;;;5012625;28;20053;-66
2021/12/03 23:10:53;;;;;;;14.75;8.15;;;;;;;;;;5012836;28;20477;-66
2021/12/03 23:13:21;;;;;;;12.95;7.93;;;;;;;;;;5012561;28;20539;-66
2021/12/03 23:15:47;;;;;;;13.93;8.32;;;;;;;;;;5011087;28;20488;-66
2021/12/03 23:18:14;;;;;;;10.00;6.55;;;;;;;;;;5012673;28;20029;-66
2021/12/03 23:20:40;;;;;;;13.50;6.53;;;;;;;;;;5012610;28;20165;-66
2021/12/03 23:23:08;;;;;;;14.13;7.32;;;;;;;;;;5012236;28;20029;-67
2021/12/03 23:25:35;;;;;;;12.70;7.65;;;;;;;;;;5012809;28;20026;-65
2021/12/03 23:28:00;;;;;;;12.23;7.63;;;;;;;;;;5012485;28;20097;-66
2021/12/03 23:30:27;;;;;;;15.50;8.25;;;;;;;;;;5012265;28;20536;-63
2021/12/03 23:32:53;;;;;;;12.10;7.20;;;;;;;;;;5007988;28;20018;-64